createdAt,value
2019-03-03T00:02:12.966Z,3.39
2019-03-03T00:04:45.333Z,3.40
2019-03-03T00:07:18.115Z,3.40
2019-03-03T00:09:50.592Z,3.38
2019-03-03T00:12:22.965Z,3.38
2019-03-03T00:14:55.335Z,3.38
2019-03-03T00:17:28.018Z,3.39
2019-03-03T00:20:00.398Z,3.40
2019-03-03T00:22:32.766Z,3.39
2019-03-03T00:25:05.745Z,3.39
2019-03-03T00:27:38.121Z,3.41
2019-03-03T00:30:21.956Z,3.42
2019-03-03T00:32:54.331Z,3.41
2019-03-03T00:35:26.807Z,3.40
2019-03-03T00:38:06.552Z,3.43
2019-03-03T00:40:56.012Z,3.43
2019-03-03T00:43:28.086Z,3.44
2019-03-03T00:46:09.164Z,3.46
2019-03-03T00:48:59.253Z,3.44
2019-03-03T00:51:36.232Z,3.45
2019-03-03T00:54:10.452Z,3.47
2019-03-03T00:57:02.785Z,3.47
2019-03-03T00:59:39.661Z,3.48
2019-03-03T01:02:11.726Z,3.49
2019-03-03T01:04:43.794Z,3.51
2019-03-03T01:07:20.668Z,3.51
2019-03-03T01:09:54.198Z,3.50
2019-03-03T01:12:40.977Z,3.50
2019-03-03T01:15:18.478Z,3.47
2019-03-03T01:18:08.969Z,3.44
2019-03-03T01:20:54.858Z,3.40
2019-03-03T01:23:31.437Z,3.32
2019-03-03T01:26:04.002Z,3.28
2019-03-03T01:28:36.379Z,3.26
2019-03-03T01:31:08.856Z,3.17
2019-03-03T01:33:41.219Z,3.11
2019-03-03T01:36:13.905Z,3.08
2019-03-03T01:38:46.068Z,2.97
2019-03-03T01:41:18.438Z,2.94
2019-03-03T01:43:50.912Z,2.91
2019-03-03T01:46:23.295Z,2.84
2019-03-03T01:48:55.221Z,2.77
2019-03-03T01:51:27.613Z,2.67
2019-03-03T01:54:00.308Z,2.68
2019-03-03T01:56:32.784Z,2.67
2019-03-03T01:59:05.150Z,2.66
2019-03-03T02:01:37.625Z,2.64
2019-03-03T02:04:10.096Z,2.67
2019-03-03T02:06:42.568Z,2.55
2019-03-03T02:09:14.953Z,2.54
2019-03-03T02:11:47.312Z,2.53
2019-03-03T02:20:20.253Z,2.55
2019-03-03T02:22:57.918Z,2.46
2019-03-03T02:26:06.723Z,2.49
2019-03-03T02:29:27.161Z,2.46
2019-03-03T02:32:11.508Z,2.54
2019-03-03T02:35:08.407Z,2.48
2019-03-03T02:37:45.454Z,2.47
2019-03-03T02:40:25.949Z,2.49
2019-03-03T02:50:23.636Z,2.65
2019-03-03T02:59:18.201Z,2.77
2019-03-03T03:11:51.036Z,2.96
2019-03-03T03:24:23.258Z,3.22
2019-03-03T03:27:00.678Z,3.35
2019-03-03T03:33:06.546Z,3.36
2019-03-03T03:35:56.788Z,3.35
2019-03-03T03:41:47.522Z,3.41
2019-03-03T03:44:28.160Z,3.43
2019-03-03T03:47:15.966Z,3.43
2019-03-03T03:50:03.952Z,3.43
2019-03-03T03:52:51.371Z,3.43
2019-03-03T03:55:43.949Z,3.41
2019-03-03T03:58:41.067Z,3.43
2019-03-03T04:01:23.318Z,3.40
2019-03-03T04:04:03.381Z,3.35
2019-03-03T04:06:57.771Z,3.33
2019-03-03T04:09:38.318Z,3.37
2019-03-03T04:12:34.555Z,3.42
2019-03-03T04:15:20.092Z,3.42
2019-03-03T04:18:07.874Z,3.42
2019-03-03T04:21:11.064Z,3.43
2019-03-03T04:24:19.975Z,3.47
2019-03-03T04:27:12.050Z,3.50
2019-03-03T04:32:45.478Z,3.46
2019-03-03T04:35:36.768Z,3.46
2019-03-03T04:38:28.790Z,3.41
2019-03-03T04:41:09.275Z,3.43
2019-03-03T04:47:08.016Z,3.51
2019-03-03T04:49:52.048Z,3.58
2019-03-03T04:56:06.041Z,3.69
2019-03-03T05:02:25.576Z,3.79
2019-03-03T05:05:10.280Z,3.83
2019-03-03T05:08:10.639Z,3.89
2019-03-03T05:11:00.674Z,3.95
2019-03-03T05:13:53.210Z,4.00
2019-03-03T05:16:32.984Z,4.05
2019-03-03T05:19:24.775Z,4.07
2019-03-03T05:22:06.820Z,4.09
2019-03-03T05:24:42.545Z,4.11
2019-03-03T05:27:19.552Z,4.15
2019-03-03T05:29:53.677Z,4.20
2019-03-03T05:32:33.000Z,4.21
2019-03-03T05:35:12.936Z,4.25
2019-03-03T05:37:45.473Z,4.26
2019-03-03T05:40:24.751Z,4.27
2019-03-03T05:43:03.573Z,4.29
2019-03-03T05:45:56.163Z,4.30
2019-03-03T05:48:40.509Z,4.34
2019-03-03T05:51:13.436Z,4.39
2019-03-03T05:53:52.111Z,4.40
2019-03-03T05:56:26.901Z,4.49
2019-03-03T05:58:59.713Z,4.56
2019-03-03T06:01:36.701Z,4.61
2019-03-03T06:05:00.252Z,4.65
2019-03-03T06:07:31.737Z,4.69
2019-03-03T06:10:21.064Z,4.77
2019-03-03T06:25:46.968Z,4.85
2019-03-03T06:28:36.110Z,4.92
2019-03-03T06:31:09.994Z,4.91
2019-03-03T07:35:42.268Z,5.72
2019-03-03T08:00:09.633Z,6.19
2019-03-03T08:03:03.028Z,6.26
2019-03-03T08:05:57.503Z,6.37
2019-03-03T08:08:55.669Z,6.47
2019-03-03T08:14:43.967Z,6.82
2019-03-03T08:17:43.884Z,6.93
2019-03-03T08:20:35.499Z,7.01
2019-03-03T08:23:41.852Z,7.16
2019-03-03T08:26:07.066Z,7.21
2019-03-03T08:28:44.061Z,7.28
2019-03-03T08:31:18.750Z,7.37
2019-03-03T08:33:57.166Z,7.42
2019-03-03T08:36:43.321Z,7.46
2019-03-03T08:39:24.589Z,7.51
2019-03-03T08:42:02.784Z,7.56
2019-03-03T08:44:40.631Z,7.69
2019-03-03T08:47:20.670Z,7.88
2019-03-03T08:49:58.541Z,8.00
2019-03-03T08:52:34.896Z,8.05
2019-03-03T08:55:24.062Z,8.20
2019-03-03T08:58:11.791Z,8.26
2019-03-03T09:01:00.849Z,8.41
2019-03-03T09:03:37.512Z,8.56
2019-03-03T09:06:18.649Z,8.70
2019-03-03T09:08:58.287Z,8.75
2019-03-03T09:11:44.213Z,8.85
2019-03-03T09:14:23.934Z,8.83
2019-03-03T09:17:00.435Z,8.83
2019-03-03T09:19:47.635Z,8.83
2019-03-03T09:22:30.884Z,8.81
2019-03-03T09:25:11.914Z,8.76
2019-03-03T09:28:05.117Z,8.78
2019-03-03T09:30:47.840Z,8.81
2019-03-03T09:33:20.416Z,8.83
2019-03-03T09:36:05.957Z,8.92
2019-03-03T09:38:50.027Z,8.94
2019-03-03T09:41:34.773Z,9.06
2019-03-03T09:44:20.827Z,9.15
2019-03-03T09:47:00.017Z,9.32
2019-03-03T09:49:58.934Z,9.45
2019-03-03T09:52:49.054Z,9.57
2019-03-03T09:55:32.004Z,9.67
2019-03-03T09:58:09.916Z,9.85
2019-03-03T10:00:45.200Z,9.92
2019-03-03T10:03:32.332Z,10.06
2019-03-03T10:06:23.058Z,10.06
2019-03-03T10:09:42.999Z,10.16
2019-03-03T10:12:29.406Z,10.11
2019-03-03T10:18:51.854Z,10.00
2019-03-03T10:21:50.084Z,10.02
2019-03-03T10:24:30.537Z,10.04
2019-03-03T10:30:35.710Z,9.99
2019-03-03T10:33:18.420Z,9.96
2019-03-03T10:38:54.612Z,9.93
2019-03-03T10:41:39.306Z,9.98
2019-03-03T10:44:27.099Z,10.02
2019-03-03T10:47:15.075Z,10.05
2019-03-03T10:49:55.992Z,10.11
2019-03-03T10:52:43.770Z,10.08
2019-03-03T10:55:49.968Z,10.10
2019-03-03T10:58:29.975Z,10.16
2019-03-03T11:01:09.134Z,10.20
2019-03-03T11:03:55.839Z,10.29
2019-03-03T11:06:34.232Z,10.39
2019-03-03T11:09:19.913Z,10.47
2019-03-03T11:12:14.640Z,10.63
2019-03-03T11:15:18.193Z,10.76
2019-03-03T11:18:07.331Z,10.86
2019-03-03T11:24:18.254Z,11.03
2019-03-03T11:27:15.850Z,11.10
2019-03-03T11:34:15.152Z,11.39
2019-03-03T11:47:34.716Z,11.37
2019-03-03T11:54:45.545Z,11.39
2019-03-03T11:57:54.125Z,11.32
2019-03-03T12:11:16.043Z,11.41
2019-03-03T13:30:33.476Z,11.02
2019-03-03T13:33:09.182Z,10.71
2019-03-03T13:36:00.793Z,10.54
2019-03-03T13:38:36.950Z,10.43
2019-03-03T13:41:19.033Z,10.34
2019-03-03T14:07:04.284Z,9.75
2019-03-03T14:09:40.458Z,9.74
2019-03-03T14:16:01.275Z,9.69
2019-03-03T14:51:11.835Z,9.50
2019-03-03T14:54:06.000Z,9.49
2019-03-03T14:56:50.369Z,9.48
2019-03-03T16:11:16.450Z,9.14
2019-03-03T16:16:58.588Z,9.10
2019-03-03T16:19:44.759Z,9.11
2019-03-03T16:37:06.031Z,9.05
2019-03-03T17:20:45.959Z,9.19
2019-03-03T17:23:31.534Z,9.20
2019-03-03T17:26:12.516Z,9.23
2019-03-03T17:28:52.132Z,9.22
2019-03-03T17:31:30.886Z,9.21
2019-03-03T17:34:23.847Z,9.21
2019-03-03T17:37:11.523Z,9.24
2019-03-03T18:58:57.222Z,8.94
2019-03-03T19:09:45.495Z,8.96
2019-03-03T19:12:33.637Z,8.96
2019-03-03T19:15:24.224Z,8.96
2019-03-03T19:37:33.939Z,9.00
2019-03-03T20:06:30.278Z,9.13
2019-03-03T20:09:09.509Z,9.14
2019-03-03T20:14:56.923Z,9.13
2019-03-03T20:20:11.210Z,9.14
2019-03-03T20:22:54.838Z,9.15
2019-03-03T20:25:30.956Z,9.16
2019-03-03T20:28:11.308Z,9.13
2019-03-03T20:30:49.819Z,9.11
2019-03-03T20:33:26.629Z,9.13
2019-03-03T20:36:01.043Z,9.14
2019-03-03T20:38:38.796Z,9.11
2019-03-03T20:41:16.079Z,9.14
2019-03-03T20:43:54.884Z,9.13
2019-03-03T20:46:30.042Z,9.12
2019-03-03T20:49:06.189Z,9.11
2019-03-03T20:51:52.703Z,9.11
2019-03-03T20:54:27.322Z,9.12
2019-03-03T20:57:00.144Z,9.10
2019-03-03T20:59:34.885Z,9.11
2019-03-03T21:02:09.872Z,9.12
2019-03-03T21:04:47.896Z,9.13
2019-03-03T21:30:23.732Z,9.12
2019-03-03T21:38:44.146Z,9.08
2019-03-03T21:44:24.931Z,9.07
2019-03-03T21:47:09.533Z,9.07
2019-03-03T21:49:58.363Z,9.09
2019-03-03T21:52:32.714Z,9.11
2019-03-03T21:55:12.230Z,9.14
2019-03-03T21:57:48.631Z,9.08
2019-03-03T22:00:41.274Z,9.11
2019-03-03T22:03:16.202Z,9.11
2019-03-03T22:05:50.175Z,9.11
2019-03-03T22:08:22.125Z,9.09
2019-03-03T22:10:54.627Z,9.09
2019-03-03T22:13:26.979Z,9.12
2019-03-03T22:15:59.451Z,9.06
2019-03-03T22:18:33.594Z,9.07
2019-03-03T22:21:07.290Z,9.05
2019-03-03T22:23:40.373Z,9.04
2019-03-03T22:26:12.859Z,9.07
2019-03-03T22:28:45.357Z,9.05
2019-03-03T22:31:18.195Z,9.06
2019-03-03T22:33:50.566Z,9.04
2019-03-03T22:36:22.959Z,9.01
2019-03-03T22:38:56.462Z,9.01
2019-03-03T22:41:29.051Z,9.08
2019-03-03T22:44:01.681Z,9.05
2019-03-03T22:46:34.218Z,9.08
2019-03-03T22:49:07.372Z,9.07
2019-03-03T22:51:39.832Z,9.12
2019-03-03T22:54:12.223Z,9.14
2019-03-03T22:56:45.353Z,9.10
2019-03-03T22:59:17.677Z,9.09
2019-03-03T23:01:49.870Z,9.08
2019-03-03T23:04:52.026Z,9.11
2019-03-03T23:07:35.055Z,9.14
2019-03-03T23:10:26.838Z,9.13
2019-03-03T23:13:21.982Z,9.11
2019-03-03T23:15:59.037Z,9.09
2019-03-03T23:18:57.003Z,9.14
2019-03-03T23:21:57.582Z,9.13
2019-03-03T23:24:49.421Z,9.13
2019-03-03T23:27:21.740Z,9.15
2019-03-03T23:29:54.452Z,9.14
2019-03-03T23:32:26.898Z,9.16
2019-03-03T23:35:00.404Z,9.21
2019-03-03T23:37:32.721Z,9.20
2019-03-03T23:40:06.842Z,9.14
2019-03-03T23:42:39.142Z,9.11
2019-03-03T23:45:12.838Z,9.15
2019-03-03T23:47:45.418Z,9.18
2019-03-03T23:50:17.795Z,9.16
2019-03-03T23:52:50.162Z,9.14
2019-03-03T23:55:22.540Z,9.13
2019-03-03T23:57:55.109Z,9.19
